sensor_id;sensor_type;location;lat;lon;timestamp;temperature;humidity
68746;SHT31;55731;45.456;11.064;2022-10-16T00:02:07;18.19;67.73
68746;SHT31;55731;45.456;11.064;2022-10-16T00:04:44;18.16;67.91
68746;SHT31;55731;45.456;11.064;2022-10-16T00:07:21;18.12;68.01
68746;SHT31;55731;45.456;11.064;2022-10-16T00:09:58;18.11;68.02
68746;SHT31;55731;45.456;11.064;2022-10-16T00:12:36;18.08;68.13
68746;SHT31;55731;45.456;11.064;2022-10-16T00:15:13;18.05;68.25
68746;SHT31;55731;45.456;11.064;2022-10-16T00:17:51;18.02;68.30
68746;SHT31;55731;45.456;11.064;2022-10-16T00:20:28;18.01;68.30
68746;SHT31;55731;45.456;11.064;2022-10-16T00:23:06;18.02;68.30
68746;SHT31;55731;45.456;11.064;2022-10-16T00:25:43;18.02;68.30
68746;SHT31;55731;45.456;11.064;2022-10-16T00:28:28;18.01;68.30
68746;SHT31;55731;45.456;11.064;2022-10-16T00:31:06;17.97;68.35
68746;SHT31;55731;45.456;11.064;2022-10-16T00:33:43;17.93;68.40
68746;SHT31;55731;45.456;11.064;2022-10-16T00:36:22;17.87;68.45
68746;SHT31;55731;45.456;11.064;2022-10-16T00:38:57;17.80;68.56
68746;SHT31;55731;45.456;11.064;2022-10-16T00:41:35;17.76;68.63
68746;SHT31;55731;45.456;11.064;2022-10-16T00:47:22;17.72;68.81
68746;SHT31;55731;45.456;11.064;2022-10-16T00:50:06;17.70;68.88
68746;SHT31;55731;45.456;11.064;2022-10-16T00:52:48;17.67;68.99
68746;SHT31;55731;45.456;11.064;2022-10-16T00:55:25;17.67;69.00
68746;SHT31;55731;45.456;11.064;2022-10-16T00:58:09;17.66;69.03
68746;SHT31;55731;45.456;11.064;2022-10-16T01:00:46;17.65;69.09
68746;SHT31;55731;45.456;11.064;2022-10-16T01:03:27;17.61;69.19
68746;SHT31;55731;45.456;11.064;2022-10-16T01:06:09;17.59;69.15
68746;SHT31;55731;45.456;11.064;2022-10-16T01:09:13;17.61;69.11
68746;SHT31;55731;45.456;11.064;2022-10-16T01:11:57;17.64;69.06
68746;SHT31;55731;45.456;11.064;2022-10-16T01:14:43;17.64;69.05
68746;SHT31;55731;45.456;11.064;2022-10-16T01:17:28;17.58;69.21
68746;SHT31;55731;45.456;11.064;2022-10-16T01:20:13;17.53;69.35
68746;SHT31;55731;45.456;11.064;2022-10-16T01:23:02;17.51;69.37
68746;SHT31;55731;45.456;11.064;2022-10-16T01:29:03;17.53;69.37
68746;SHT31;55731;45.456;11.064;2022-10-16T01:31:52;17.53;69.42
68746;SHT31;55731;45.456;11.064;2022-10-16T01:34:37;17.54;69.38
68746;SHT31;55731;45.456;11.064;2022-10-16T01:37:24;17.57;69.30
68746;SHT31;55731;45.456;11.064;2022-10-16T01:40:11;17.57;69.29
68746;SHT31;55731;45.456;11.064;2022-10-16T01:42:52;17.56;69.28
68746;SHT31;55731;45.456;11.064;2022-10-16T01:45:31;17.54;69.30
68746;SHT31;55731;45.456;11.064;2022-10-16T01:48:11;17.56;69.29
68746;SHT31;55731;45.456;11.064;2022-10-16T01:50:56;17.57;69.21
68746;SHT31;55731;45.456;11.064;2022-10-16T01:53:38;17.56;69.17
68746;SHT31;55731;45.456;11.064;2022-10-16T01:56:19;17.54;69.24
68746;SHT31;55731;45.456;11.064;2022-10-16T01:59:12;17.53;69.25
68746;SHT31;55731;45.456;11.064;2022-10-16T02:01:54;17.51;69.29
68746;SHT31;55731;45.456;11.064;2022-10-16T02:04:36;17.50;69.29
68746;SHT31;55731;45.456;11.064;2022-10-16T02:07:18;17.44;69.29
68746;SHT31;55731;45.456;11.064;2022-10-16T02:09:56;17.42;69.39
68746;SHT31;55731;45.456;11.064;2022-10-16T02:12:33;17.40;69.40
68746;SHT31;55731;45.456;11.064;2022-10-16T02:15:15;17.37;69.43
68746;SHT31;55731;45.456;11.064;2022-10-16T02:17:52;17.34;69.50
68746;SHT31;55731;45.456;11.064;2022-10-16T02:20:29;17.31;69.51
68746;SHT31;55731;45.456;11.064;2022-10-16T02:23:16;17.28;69.63
68746;SHT31;55731;45.456;11.064;2022-10-16T02:26:05;17.25;69.72
68746;SHT31;55731;45.456;11.064;2022-10-16T02:28:53;17.26;69.73
68746;SHT31;55731;45.456;11.064;2022-10-16T02:31:35;17.26;69.71
68746;SHT31;55731;45.456;11.064;2022-10-16T02:34:22;17.25;69.65
68746;SHT31;55731;45.456;11.064;2022-10-16T02:37:04;17.27;69.61
68746;SHT31;55731;45.456;11.064;2022-10-16T02:39:42;17.26;69.51
68746;SHT31;55731;45.456;11.064;2022-10-16T02:42:18;17.28;69.43
68746;SHT31;55731;45.456;11.064;2022-10-16T02:45:07;17.26;69.40
68746;SHT31;55731;45.456;11.064;2022-10-16T02:47:46;17.25;69.37
68746;SHT31;55731;45.456;11.064;2022-10-16T02:50:23;17.28;69.27
68746;SHT31;55731;45.456;11.064;2022-10-16T02:53:00;17.31;69.17
68746;SHT31;55731;45.456;11.064;2022-10-16T02:55:37;17.33;69.08
68746;SHT31;55731;45.456;11.064;2022-10-16T02:58:14;17.35;68.98
68746;SHT31;55731;45.456;11.064;2022-10-16T03:00:51;17.35;68.90
68746;SHT31;55731;45.456;11.064;2022-10-16T03:03:29;17.33;68.90
68746;SHT31;55731;45.456;11.064;2022-10-16T03:06:06;17.31;68.90
68746;SHT31;55731;45.456;11.064;2022-10-16T03:08:42;17.29;68.90
68746;SHT31;55731;45.456;11.064;2022-10-16T03:11:19;17.29;68.90
68746;SHT31;55731;45.456;11.064;2022-10-16T03:13:56;17.30;68.78
68746;SHT31;55731;45.456;11.064;2022-10-16T03:16:33;17.31;68.69
68746;SHT31;55731;45.456;11.064;2022-10-16T03:19:10;17.31;68.61
68746;SHT31;55731;45.456;11.064;2022-10-16T03:21:47;17.27;68.60
68746;SHT31;55731;45.456;11.064;2022-10-16T03:24:24;17.25;68.58
68746;SHT31;55731;45.456;11.064;2022-10-16T03:27:01;17.21;68.59
68746;SHT31;55731;45.456;11.064;2022-10-16T03:29:38;17.20;68.61
68746;SHT31;55731;45.456;11.064;2022-10-16T03:32:15;17.19;68.60
68746;SHT31;55731;45.456;11.064;2022-10-16T03:34:54;17.18;68.60
68746;SHT31;55731;45.456;11.064;2022-10-16T03:37:30;17.20;68.53
68746;SHT31;55731;45.456;11.064;2022-10-16T03:40:09;17.22;68.42
68746;SHT31;55731;45.456;11.064;2022-10-16T03:42:48;17.22;68.35
68746;SHT31;55731;45.456;11.064;2022-10-16T03:45:26;17.23;68.30
68746;SHT31;55731;45.456;11.064;2022-10-16T03:48:04;17.18;68.34
68746;SHT31;55731;45.456;11.064;2022-10-16T03:50:42;17.15;68.36
68746;SHT31;55731;45.456;11.064;2022-10-16T03:53:19;17.12;68.44
68746;SHT31;55731;45.456;11.064;2022-10-16T03:55:57;17.08;68.50
68746;SHT31;55731;45.456;11.064;2022-10-16T03:58:34;17.08;68.50
68746;SHT31;55731;45.456;11.064;2022-10-16T04:01:11;17.09;68.45
68746;SHT31;55731;45.456;11.064;2022-10-16T04:03:47;17.10;68.35
68746;SHT31;55731;45.456;11.064;2022-10-16T04:06:24;17.11;68.33
68746;SHT31;55731;45.456;11.064;2022-10-16T04:09:02;17.13;68.21
68746;SHT31;55731;45.456;11.064;2022-10-16T04:11:38;17.12;68.15
68746;SHT31;55731;45.456;11.064;2022-10-16T04:14:15;17.11;68.11
68746;SHT31;55731;45.456;11.064;2022-10-16T04:16:52;17.08;68.19
68746;SHT31;55731;45.456;11.064;2022-10-16T04:19:29;17.05;68.26
68746;SHT31;55731;45.456;11.064;2022-10-16T04:22:06;17.06;68.30
68746;SHT31;55731;45.456;11.064;2022-10-16T04:24:42;17.06;68.27
68746;SHT31;55731;45.456;11.064;2022-10-16T04:27:20;17.07;68.29
68746;SHT31;55731;45.456;11.064;2022-10-16T04:29:57;17.07;68.35
68746;SHT31;55731;45.456;11.064;2022-10-16T04:32:34;17.05;68.40
68746;SHT31;55731;45.456;11.064;2022-10-16T04:35:11;17.06;68.44
68746;SHT31;55731;45.456;11.064;2022-10-16T04:37:47;17.04;68.52
68746;SHT31;55731;45.456;11.064;2022-10-16T04:40:24;17.01;68.59
68746;SHT31;55731;45.456;11.064;2022-10-16T04:43:05;16.98;68.69
68746;SHT31;55731;45.456;11.064;2022-10-16T04:45:41;16.98;68.71
68746;SHT31;55731;45.456;11.064;2022-10-16T04:48:19;17.01;68.75
68746;SHT31;55731;45.456;11.064;2022-10-16T04:50:56;17.01;68.79
68746;SHT31;55731;45.456;11.064;2022-10-16T04:53:33;17.02;68.80
68746;SHT31;55731;45.456;11.064;2022-10-16T04:56:09;17.03;68.80
68746;SHT31;55731;45.456;11.064;2022-10-16T04:58:46;17.01;68.90
68746;SHT31;55731;45.456;11.064;2022-10-16T05:01:23;17.01;68.95
68746;SHT31;55731;45.456;11.064;2022-10-16T05:04:00;17.00;68.99
68746;SHT31;55731;45.456;11.064;2022-10-16T05:06:36;17.02;68.91
68746;SHT31;55731;45.456;11.064;2022-10-16T05:09:14;17.06;68.93
68746;SHT31;55731;45.456;11.064;2022-10-16T05:11:51;17.09;68.80
68746;SHT31;55731;45.456;11.064;2022-10-16T05:14:27;17.12;68.74
68746;SHT31;55731;45.456;11.064;2022-10-16T05:17:05;17.15;68.68
68746;SHT31;55731;45.456;11.064;2022-10-16T05:19:42;17.17;68.61
68746;SHT31;55731;45.456;11.064;2022-10-16T05:22:18;17.17;68.67
68746;SHT31;55731;45.456;11.064;2022-10-16T05:24:55;17.17;68.69
68746;SHT31;55731;45.456;11.064;2022-10-16T05:27:31;17.15;68.78
68746;SHT31;55731;45.456;11.064;2022-10-16T05:30:09;17.17;68.80
68746;SHT31;55731;45.456;11.064;2022-10-16T05:32:49;17.22;68.92
68746;SHT31;55731;45.456;11.064;2022-10-16T05:35:26;17.19;69.15
68746;SHT31;55731;45.456;11.064;2022-10-16T05:38:02;17.18;69.15
68746;SHT31;55731;45.456;11.064;2022-10-16T05:40:38;17.20;69.13
68746;SHT31;55731;45.456;11.064;2022-10-16T05:43:21;17.20;69.08
68746;SHT31;55731;45.456;11.064;2022-10-16T05:45:59;17.22;69.15
68746;SHT31;55731;45.456;11.064;2022-10-16T05:48:37;17.22;69.34
68746;SHT31;55731;45.456;11.064;2022-10-16T05:51:14;17.24;69.56
68746;SHT31;55731;45.456;11.064;2022-10-16T05:53:51;17.21;69.75
68746;SHT31;55731;45.456;11.064;2022-10-16T05:56:28;17.16;70.00
68746;SHT31;55731;45.456;11.064;2022-10-16T05:59:04;17.12;70.24
68746;SHT31;55731;45.456;11.064;2022-10-16T06:01:42;17.04;70.41
68746;SHT31;55731;45.456;11.064;2022-10-16T06:04:19;16.97;70.71
68746;SHT31;55731;45.456;11.064;2022-10-16T06:06:57;16.90;70.74
68746;SHT31;55731;45.456;11.064;2022-10-16T06:09:34;16.86;70.92
68746;SHT31;55731;45.456;11.064;2022-10-16T06:12:09;16.85;71.12
68746;SHT31;55731;45.456;11.064;2022-10-16T06:14:46;16.84;71.32
68746;SHT31;55731;45.456;11.064;2022-10-16T06:17:22;16.83;71.38
68746;SHT31;55731;45.456;11.064;2022-10-16T06:20:00;16.83;71.46
68746;SHT31;55731;45.456;11.064;2022-10-16T06:22:39;16.84;71.52
68746;SHT31;55731;45.456;11.064;2022-10-16T06:25:15;16.86;71.53
68746;SHT31;55731;45.456;11.064;2022-10-16T06:27:52;16.90;71.51
68746;SHT31;55731;45.456;11.064;2022-10-16T06:30:29;16.94;71.34
68746;SHT31;55731;45.456;11.064;2022-10-16T06:33:06;17.03;71.08
68746;SHT31;55731;45.456;11.064;2022-10-16T06:35:43;17.11;70.88
68746;SHT31;55731;45.456;11.064;2022-10-16T06:38:19;17.19;70.79
68746;SHT31;55731;45.456;11.064;2022-10-16T06:40:57;17.26;70.63
68746;SHT31;55731;45.456;11.064;2022-10-16T06:43:33;17.32;70.48
68746;SHT31;55731;45.456;11.064;2022-10-16T06:46:11;17.36;70.35
68746;SHT31;55731;45.456;11.064;2022-10-16T06:48:49;17.39;70.30
68746;SHT31;55731;45.456;11.064;2022-10-16T06:51:26;17.43;70.19
68746;SHT31;55731;45.456;11.064;2022-10-16T06:54:09;17.48;70.14
68746;SHT31;55731;45.456;11.064;2022-10-16T06:56:46;17.55;70.16
68746;SHT31;55731;45.456;11.064;2022-10-16T06:59:24;17.63;70.23
68746;SHT31;55731;45.456;11.064;2022-10-16T07:02:01;17.69;70.50
68746;SHT31;55731;45.456;11.064;2022-10-16T07:04:39;17.70;70.56
68746;SHT31;55731;45.456;11.064;2022-10-16T07:07:17;17.72;70.40
68746;SHT31;55731;45.456;11.064;2022-10-16T07:09:55;17.75;70.15
68746;SHT31;55731;45.456;11.064;2022-10-16T07:12:31;17.78;69.67
68746;SHT31;55731;45.456;11.064;2022-10-16T07:15:09;17.77;69.77
68746;SHT31;55731;45.456;11.064;2022-10-16T07:17:47;17.78;69.79
68746;SHT31;55731;45.456;11.064;2022-10-16T07:20:24;17.81;69.80
68746;SHT31;55731;45.456;11.064;2022-10-16T07:23:00;17.86;69.80
68746;SHT31;55731;45.456;11.064;2022-10-16T07:25:37;17.91;69.82
68746;SHT31;55731;45.456;11.064;2022-10-16T07:28:13;17.96;69.72
68746;SHT31;55731;45.456;11.064;2022-10-16T07:30:49;18.02;69.70
68746;SHT31;55731;45.456;11.064;2022-10-16T07:33:26;18.06;69.62
68746;SHT31;55731;45.456;11.064;2022-10-16T07:36:04;18.09;69.48
68746;SHT31;55731;45.456;11.064;2022-10-16T07:38:44;18.12;69.40
68746;SHT31;55731;45.456;11.064;2022-10-16T07:41:27;18.16;69.39
68746;SHT31;55731;45.456;11.064;2022-10-16T07:44:06;18.20;69.27
68746;SHT31;55731;45.456;11.064;2022-10-16T07:46:42;18.27;69.08
68746;SHT31;55731;45.456;11.064;2022-10-16T07:49:18;18.34;68.93
68746;SHT31;55731;45.456;11.064;2022-10-16T07:51:55;18.41;69.02
68746;SHT31;55731;45.456;11.064;2022-10-16T07:54:31;18.47;69.16
68746;SHT31;55731;45.456;11.064;2022-10-16T07:57:08;18.48;69.20
68746;SHT31;55731;45.456;11.064;2022-10-16T07:59:47;18.50;69.23
68746;SHT31;55731;45.456;11.064;2022-10-16T08:02:24;18.55;69.30
68746;SHT31;55731;45.456;11.064;2022-10-16T08:05:02;18.59;69.30
68746;SHT31;55731;45.456;11.064;2022-10-16T08:07:41;18.65;69.33
68746;SHT31;55731;45.456;11.064;2022-10-16T08:10:23;18.70;69.56
68746;SHT31;55731;45.456;11.064;2022-10-16T08:13:00;18.73;69.69
68746;SHT31;55731;45.456;11.064;2022-10-16T08:15:37;18.76;69.70
68746;SHT31;55731;45.456;11.064;2022-10-16T08:18:14;18.80;69.70
68746;SHT31;55731;45.456;11.064;2022-10-16T08:20:56;18.82;69.52
68746;SHT31;55731;45.456;11.064;2022-10-16T08:23:33;18.84;69.22
68746;SHT31;55731;45.456;11.064;2022-10-16T08:26:10;18.89;69.04
68746;SHT31;55731;45.456;11.064;2022-10-16T08:28:51;18.99;68.60
68746;SHT31;55731;45.456;11.064;2022-10-16T08:31:27;19.06;68.01
68746;SHT31;55731;45.456;11.064;2022-10-16T08:34:04;19.15;67.41
68746;SHT31;55731;45.456;11.064;2022-10-16T08:36:41;19.29;66.69
68746;SHT31;55731;45.456;11.064;2022-10-16T08:39:18;19.38;66.32
68746;SHT31;55731;45.456;11.064;2022-10-16T08:41:59;19.47;66.19
68746;SHT31;55731;45.456;11.064;2022-10-16T08:51:07;19.78;65.41
68746;SHT31;55731;45.456;11.064;2022-10-16T08:53:51;19.87;65.16
68746;SHT31;55731;45.456;11.064;2022-10-16T08:56:33;19.94;64.91
68746;SHT31;55731;45.456;11.064;2022-10-16T08:59:11;20.02;64.69
68746;SHT31;55731;45.456;11.064;2022-10-16T09:01:51;20.07;64.25
68746;SHT31;55731;45.456;11.064;2022-10-16T09:07:38;20.19;64.28
68746;SHT31;55731;45.456;11.064;2022-10-16T09:10:30;20.26;64.12
68746;SHT31;55731;45.456;11.064;2022-10-16T09:13:23;20.34;63.95
68746;SHT31;55731;45.456;11.064;2022-10-16T09:16:12;20.41;63.69
68746;SHT31;55731;45.456;11.064;2022-10-16T09:18:58;20.46;63.34
68746;SHT31;55731;45.456;11.064;2022-10-16T09:21:45;20.55;63.29
68746;SHT31;55731;45.456;11.064;2022-10-16T09:24:24;20.61;63.02
68746;SHT31;55731;45.456;11.064;2022-10-16T09:27:02;20.69;62.61
68746;SHT31;55731;45.456;11.064;2022-10-16T09:29:41;20.76;62.02
68746;SHT31;55731;45.456;11.064;2022-10-16T09:32:19;20.83;61.79
68746;SHT31;55731;45.456;11.064;2022-10-16T09:34:55;20.90;61.55
68746;SHT31;55731;45.456;11.064;2022-10-16T09:37:32;20.96;61.22
68746;SHT31;55731;45.456;11.064;2022-10-16T09:40:23;21.03;60.94
68746;SHT31;55731;45.456;11.064;2022-10-16T09:43:06;21.11;60.98
68746;SHT31;55731;45.456;11.064;2022-10-16T09:46:24;21.20;60.39
68746;SHT31;55731;45.456;11.064;2022-10-16T09:49:04;21.27;59.82
68746;SHT31;55731;45.456;11.064;2022-10-16T09:52:04;21.33;59.81
68746;SHT31;55731;45.456;11.064;2022-10-16T09:54:51;21.38;59.75
68746;SHT31;55731;45.456;11.064;2022-10-16T09:57:29;21.45;59.35
68746;SHT31;55731;45.456;11.064;2022-10-16T10:00:08;21.52;59.32
68746;SHT31;55731;45.456;11.064;2022-10-16T10:02:49;21.59;59.34
68746;SHT31;55731;45.456;11.064;2022-10-16T10:05:27;21.68;59.29
68746;SHT31;55731;45.456;11.064;2022-10-16T10:08:04;21.75;59.23
68746;SHT31;55731;45.456;11.064;2022-10-16T10:10:50;21.83;58.94
68746;SHT31;55731;45.456;11.064;2022-10-16T10:13:26;21.89;58.95
68746;SHT31;55731;45.456;11.064;2022-10-16T10:16:03;21.95;58.88
68746;SHT31;55731;45.456;11.064;2022-10-16T10:18:47;22.03;58.75
68746;SHT31;55731;45.456;11.064;2022-10-16T10:21:39;22.12;58.65
68746;SHT31;55731;45.456;11.064;2022-10-16T10:24:16;22.18;58.59
68746;SHT31;55731;45.456;11.064;2022-10-16T10:26:56;22.26;58.12
68746;SHT31;55731;45.456;11.064;2022-10-16T10:29:44;22.31;58.66
68746;SHT31;55731;45.456;11.064;2022-10-16T10:32:33;22.36;58.72
68746;SHT31;55731;45.456;11.064;2022-10-16T10:35:25;22.41;58.69
